createdAt,value
2022-10-25T00:00:16.798Z,11.64
2022-10-25T00:01:17.303Z,11.58
2022-10-25T00:02:17.242Z,11.54
2022-10-25T00:03:16.934Z,11.47
2022-10-25T00:04:16.398Z,11.43
2022-10-25T00:05:16.990Z,11.40
2022-10-25T00:06:16.423Z,11.37
2022-10-25T00:07:16.878Z,11.31
2022-10-25T00:08:16.299Z,11.30
2022-10-25T00:09:16.775Z,11.16
2022-10-25T00:10:17.777Z,11.19
2022-10-25T00:11:17.085Z,11.30
2022-10-25T00:12:16.527Z,11.26
2022-10-25T00:13:17.020Z,11.25
2022-10-25T00:14:16.557Z,11.16
2022-10-25T00:15:17.011Z,11.12
2022-10-25T00:16:16.477Z,11.10
2022-10-25T00:17:16.940Z,11.10
2022-10-25T00:18:16.416Z,11.06
2022-10-25T00:19:16.869Z,11.07
2022-10-25T00:20:16.307Z,11.02
2022-10-25T00:21:16.757Z,11.03
2022-10-25T00:22:16.391Z,11.03
2022-10-25T00:23:16.808Z,11.00
2022-10-25T00:24:17.265Z,10.96
2022-10-25T00:25:16.733Z,10.95
2022-10-25T00:26:17.201Z,10.94
2022-10-25T00:27:16.659Z,10.89
2022-10-25T00:28:17.182Z,10.87
2022-10-25T00:29:16.677Z,10.87
2022-10-25T00:30:17.222Z,10.87
2022-10-25T00:31:16.699Z,10.85
2022-10-25T00:32:17.070Z,10.77
2022-10-25T00:33:16.539Z,10.75
2022-10-25T00:34:16.983Z,10.77
2022-10-25T00:35:16.411Z,10.75
2022-10-25T00:36:16.858Z,10.74
2022-10-25T00:37:16.274Z,10.77
2022-10-25T00:38:16.707Z,10.67
2022-10-25T00:39:17.197Z,10.64
2022-10-25T00:40:16.670Z,10.61
2022-10-25T00:41:17.163Z,10.64
2022-10-25T00:42:16.868Z,10.60
2022-10-25T00:43:16.334Z,10.52
2022-10-25T00:44:16.838Z,10.58
2022-10-25T00:45:16.295Z,10.56
2022-10-25T00:46:16.738Z,10.52
2022-10-25T00:47:17.163Z,10.52
2022-10-25T00:48:16.589Z,10.58
2022-10-25T00:49:17.033Z,10.60
2022-10-25T00:50:16.460Z,10.50
2022-10-25T00:51:16.897Z,10.52
2022-10-25T00:52:16.673Z,10.50
2022-10-25T00:53:17.090Z,10.43
2022-10-25T00:54:16.603Z,10.40
2022-10-25T00:55:17.195Z,10.45
2022-10-25T00:56:16.701Z,10.47
2022-10-25T00:57:17.178Z,10.36
2022-10-25T00:58:16.694Z,10.39
2022-10-25T00:59:17.293Z,10.36
2022-10-25T01:00:16.744Z,10.37
2022-10-25T01:01:17.330Z,10.37
2022-10-25T01:02:17.121Z,10.30
2022-10-25T01:03:16.820Z,10.27
2022-10-25T01:04:17.244Z,10.30
2022-10-25T01:05:16.679Z,10.21
2022-10-25T01:06:17.135Z,10.30
2022-10-25T01:07:16.566Z,10.24
2022-10-25T01:08:17.014Z,10.24
2022-10-25T01:09:16.488Z,10.27
2022-10-25T01:14:16.316Z,10.21
2022-10-25T01:15:16.751Z,10.27
2022-10-25T01:16:17.191Z,10.23
2022-10-25T01:17:16.613Z,10.19
2022-10-25T01:18:17.068Z,10.14
2022-10-25T01:19:16.518Z,10.20
2022-10-25T01:20:16.952Z,10.20
2022-10-25T01:21:16.369Z,10.16
2022-10-25T01:22:17.053Z,10.10
2022-10-25T01:23:16.514Z,10.09
2022-10-25T01:24:16.963Z,10.09
2022-10-25T01:25:16.421Z,10.06
2022-10-25T01:26:16.888Z,10.01
2022-10-25T01:27:16.340Z,10.01
2022-10-25T01:28:16.808Z,10.06
2022-10-25T01:29:17.318Z,10.02
2022-10-25T01:30:16.757Z,9.96
2022-10-25T01:31:17.227Z,9.95
2022-10-25T01:32:17.275Z,9.96
2022-10-25T01:33:16.738Z,9.92
2022-10-25T01:34:17.177Z,9.85
2022-10-25T01:35:16.601Z,9.84
2022-10-25T01:36:17.054Z,9.82
2022-10-25T01:37:16.507Z,9.91
2022-10-25T01:38:16.988Z,9.89
2022-10-25T01:39:16.480Z,9.91
2022-10-25T01:40:16.948Z,9.86
2022-10-25T01:41:16.433Z,9.84
2022-10-25T01:42:16.435Z,9.84
2022-10-25T01:43:16.884Z,9.78
2022-10-25T01:44:16.384Z,9.75
2022-10-25T01:45:16.844Z,9.82
2022-10-25T01:46:17.300Z,9.85
2022-10-25T01:47:16.725Z,9.74
2022-10-25T01:48:17.152Z,9.74
2022-10-25T01:49:16.605Z,9.76
2022-10-25T01:50:17.026Z,9.69
2022-10-25T01:51:16.462Z,9.69
2022-10-25T01:52:17.132Z,9.69
2022-10-25T01:53:16.617Z,9.65
2022-10-25T01:54:17.100Z,9.74
2022-10-25T01:55:16.604Z,9.65
2022-10-25T01:56:17.078Z,9.68
2022-10-25T01:57:16.535Z,9.69
2022-10-25T01:58:17.006Z,9.69
2022-10-25T01:59:16.469Z,9.71
2022-10-25T02:00:16.921Z,9.66
2022-10-25T02:01:16.488Z,9.64
2022-10-25T02:02:17.239Z,9.66
2022-10-25T02:03:16.669Z,9.62
2022-10-25T02:04:17.115Z,9.61
2022-10-25T02:05:16.565Z,9.65
2022-10-25T02:06:17.019Z,9.54
2022-10-25T02:07:16.461Z,9.58
2022-10-25T02:08:16.944Z,9.59
2022-10-25T02:09:16.428Z,9.55
2022-10-25T02:10:16.897Z,9.64
2022-10-25T02:11:16.379Z,9.64
2022-10-25T02:12:17.257Z,9.66
2022-10-25T02:13:16.707Z,9.62
2022-10-25T02:14:17.195Z,9.61
2022-10-25T02:15:16.619Z,9.59
2022-10-25T02:16:17.057Z,9.58
2022-10-25T02:17:16.500Z,9.57
2022-10-25T02:18:17.040Z,9.54
2022-10-25T02:19:16.645Z,9.57
2022-10-25T02:20:17.073Z,9.48
2022-10-25T02:21:16.499Z,9.50
2022-10-25T02:22:17.084Z,9.58
2022-10-25T02:23:16.541Z,9.58
2022-10-25T02:24:17.032Z,9.57
2022-10-25T02:25:16.534Z,9.54
2022-10-25T02:26:17.002Z,9.58
2022-10-25T02:27:16.482Z,9.55
2022-10-25T02:28:16.943Z,9.54
2022-10-25T02:29:16.392Z,9.55
2022-10-25T02:30:16.831Z,9.51
2022-10-25T02:31:17.304Z,9.50
2022-10-25T02:32:17.065Z,9.47
2022-10-25T02:33:16.500Z,9.50
2022-10-25T02:34:16.939Z,9.44
2022-10-25T02:35:16.373Z,9.41
2022-10-25T02:36:16.857Z,9.38
2022-10-25T02:37:16.331Z,9.45
2022-10-25T02:38:16.793Z,9.44
2022-10-25T02:39:17.275Z,9.47
2022-10-25T02:40:16.755Z,9.48
2022-10-25T02:41:17.229Z,9.54
2022-10-25T02:42:17.163Z,9.41
2022-10-25T02:43:16.683Z,9.44
2022-10-25T02:44:17.267Z,9.44
2022-10-25T02:45:16.698Z,9.48
2022-10-25T02:46:17.141Z,9.43
2022-10-25T02:47:16.582Z,9.34
2022-10-25T02:48:16.446Z,9.44
2022-10-25T02:49:16.879Z,9.38
2022-10-25T02:50:16.316Z,9.34
2022-10-25T02:51:16.790Z,9.38
2022-10-25T02:52:16.299Z,9.37
2022-10-25T02:53:16.751Z,9.37
2022-10-25T02:54:17.232Z,9.38
2022-10-25T02:55:16.686Z,9.29
2022-10-25T02:56:17.143Z,9.33
2022-10-25T02:57:16.627Z,9.30
2022-10-25T02:58:17.053Z,9.37
2022-10-25T02:59:16.480Z,9.37
2022-10-25T03:00:16.933Z,9.31
2022-10-25T03:01:16.496Z,9.34
2022-10-25T03:02:16.653Z,9.26
2022-10-25T03:03:17.075Z,9.24
2022-10-25T03:04:16.510Z,9.27
2022-10-25T03:05:16.953Z,9.29
2022-10-25T03:06:16.411Z,9.16
2022-10-25T03:07:16.886Z,9.16
2022-10-25T03:08:16.352Z,9.19
2022-10-25T03:09:16.942Z,9.24
2022-10-25T03:10:16.409Z,9.20
2022-10-25T03:11:16.889Z,9.23
2022-10-25T03:12:16.544Z,9.20
2022-10-25T03:13:16.998Z,9.20
2022-10-25T03:14:16.448Z,9.24
2022-10-25T03:15:16.873Z,9.19
2022-10-25T03:16:16.312Z,9.16
2022-10-25T03:17:16.766Z,9.22
2022-10-25T03:18:17.187Z,9.23
2022-10-25T03:19:16.650Z,9.19
2022-10-25T03:20:17.078Z,9.20
2022-10-25T03:21:16.539Z,9.19
2022-10-25T03:22:17.162Z,9.24
2022-10-25T03:23:16.621Z,9.20
2022-10-25T03:24:17.077Z,9.16
2022-10-25T03:25:16.531Z,9.13
2022-10-25T03:26:17.026Z,9.17
2022-10-25T03:27:16.475Z,9.19
2022-10-25T03:28:16.896Z,9.17
2022-10-25T03:29:16.350Z,9.17
2022-10-25T03:30:16.775Z,9.15
2022-10-25T03:31:17.225Z,9.20
2022-10-25T03:32:17.141Z,9.12
2022-10-25T03:33:16.655Z,9.17
2022-10-25T03:34:17.309Z,9.17
2022-10-25T03:35:16.747Z,9.13
2022-10-25T03:36:17.237Z,9.09
2022-10-25T03:37:16.702Z,8.95
2022-10-25T03:38:17.166Z,8.91
2022-10-25T03:39:16.626Z,8.92
2022-10-25T03:40:17.109Z,8.89
2022-10-25T03:41:16.592Z,8.91
2022-10-25T03:42:16.693Z,8.86
2022-10-25T03:43:17.180Z,8.94
2022-10-25T03:44:16.763Z,8.94
2022-10-25T03:45:17.200Z,9.05
2022-10-25T03:46:16.673Z,8.98
2022-10-25T03:47:17.126Z,8.98
2022-10-25T03:48:16.543Z,8.96
2022-10-25T03:49:17.017Z,8.94
2022-10-25T03:50:16.516Z,8.91
2022-10-25T03:51:17.009Z,8.79
2022-10-25T03:52:16.824Z,8.76
2022-10-25T03:53:17.307Z,8.92
2022-10-25T03:54:16.793Z,9.02
2022-10-25T03:55:17.239Z,9.10
2022-10-25T03:56:16.707Z,9.26
2022-10-25T03:57:17.135Z,9.20
2022-10-25T03:58:16.560Z,9.17
2022-10-25T03:59:16.987Z,9.22
2022-10-25T04:00:16.462Z,9.22
2022-10-25T04:01:17.012Z,9.22
2022-10-25T04:02:17.018Z,9.16
2022-10-25T04:03:16.443Z,9.19
2022-10-25T04:04:16.875Z,9.17
2022-10-25T04:05:16.341Z,9.15
2022-10-25T04:06:16.841Z,9.19
2022-10-25T04:07:16.307Z,9.20
2022-10-25T04:08:16.775Z,9.17
2022-10-25T04:09:17.257Z,9.22
2022-10-25T04:10:16.731Z,9.23
2022-10-25T04:11:17.221Z,9.22
2022-10-25T04:12:16.936Z,9.17
2022-10-25T04:13:16.380Z,9.16
2022-10-25T04:14:16.806Z,9.23
2022-10-25T04:15:17.258Z,9.23
2022-10-25T04:16:18.222Z,9.19
2022-10-25T04:17:16.647Z,9.22
2022-10-25T04:18:17.080Z,9.19
2022-10-25T04:19:16.675Z,9.19
2022-10-25T04:20:17.183Z,9.20
2022-10-25T04:21:16.650Z,9.22
2022-10-25T04:22:16.568Z,9.24
2022-10-25T04:23:17.062Z,9.23
2022-10-25T04:24:16.547Z,9.20
2022-10-25T04:25:17.046Z,9.16
2022-10-25T04:26:16.467Z,9.16
2022-10-25T04:27:16.892Z,9.17
2022-10-25T04:28:16.326Z,9.22
2022-10-25T04:29:16.777Z,9.19
2022-10-25T04:30:17.240Z,9.15
2022-10-25T04:31:16.657Z,9.16
2022-10-25T04:32:17.272Z,9.16
2022-10-25T04:33:16.753Z,9.13
2022-10-25T04:34:17.253Z,9.15
2022-10-25T04:35:16.727Z,9.10
2022-10-25T04:36:16.380Z,9.12
2022-10-25T04:37:16.884Z,9.13
2022-10-25T04:38:16.354Z,9.13
2022-10-25T04:39:16.799Z,9.12
2022-10-25T04:40:20.041Z,9.10
2022-10-25T04:41:16.332Z,9.12
2022-10-25T04:42:16.689Z,9.19
2022-10-25T04:43:17.121Z,9.17
2022-10-25T04:44:16.538Z,9.22
2022-10-25T04:45:16.976Z,9.15
2022-10-25T04:46:16.405Z,9.19
2022-10-25T04:47:16.869Z,9.23
2022-10-25T04:48:16.320Z,9.23
2022-10-25T04:49:16.772Z,9.24
2022-10-25T04:50:17.265Z,9.27
2022-10-25T04:51:16.738Z,9.24
2022-10-25T04:52:16.569Z,9.27
2022-10-25T04:53:17.058Z,9.24
2022-10-25T04:54:16.497Z,9.27
2022-10-25T04:55:16.950Z,9.24
2022-10-25T04:56:16.405Z,9.26
2022-10-25T04:57:16.828Z,9.27
2022-10-25T04:58:17.283Z,9.27
2022-10-25T04:59:16.764Z,9.26
2022-10-25T05:00:17.252Z,9.26
2022-10-25T05:01:16.772Z,9.27
2022-10-25T05:02:16.571Z,9.29
2022-10-25T05:03:17.086Z,9.20
2022-10-25T05:04:16.659Z,9.17
2022-10-25T05:05:17.133Z,9.19
2022-10-25T05:06:16.666Z,9.23
2022-10-25T05:07:17.135Z,9.16
2022-10-25T05:08:16.579Z,9.19
2022-10-25T05:09:17.009Z,9.24
2022-10-25T05:10:16.436Z,9.23
2022-10-25T05:11:16.901Z,9.23
2022-10-25T05:12:16.539Z,9.23
2022-10-25T05:13:16.989Z,9.22
2022-10-25T05:14:16.430Z,9.24
2022-10-25T05:15:16.884Z,9.16
2022-10-25T05:16:16.348Z,9.24
2022-10-25T05:17:16.804Z,9.24
2022-10-25T05:18:17.286Z,9.22
2022-10-25T05:19:16.767Z,9.30
2022-10-25T05:20:17.238Z,9.31
2022-10-25T05:21:16.825Z,9.38
2022-10-25T05:22:16.453Z,9.44
2022-10-25T05:23:16.889Z,9.40
2022-10-25T05:24:16.337Z,9.41
2022-10-25T05:25:16.761Z,9.44
2022-10-25T05:26:17.214Z,9.51
2022-10-25T05:27:16.656Z,9.54
2022-10-25T05:28:17.088Z,9.53
2022-10-25T05:29:16.543Z,9.51
2022-10-25T05:30:16.995Z,9.55
2022-10-25T05:31:16.456Z,9.54
2022-10-25T05:32:17.004Z,9.54
2022-10-25T05:33:16.465Z,9.54
2022-10-25T05:34:16.910Z,9.54
2022-10-25T05:35:16.371Z,9.58
2022-10-25T05:36:16.822Z,9.59
2022-10-25T05:37:17.286Z,9.62
2022-10-25T05:38:16.762Z,9.61
2022-10-25T05:39:17.194Z,9.62
2022-10-25T05:40:16.614Z,9.61
2022-10-25T05:41:17.036Z,9.68
2022-10-25T05:42:16.861Z,9.66
2022-10-25T05:43:16.285Z,9.72
2022-10-25T05:44:16.730Z,9.72
2022-10-25T05:45:17.203Z,9.71
2022-10-25T05:46:16.710Z,9.75
2022-10-25T05:47:17.176Z,9.76
2022-10-25T05:48:16.652Z,9.81
2022-10-25T05:49:17.140Z,9.89
2022-10-25T05:50:16.633Z,9.71
2022-10-25T05:51:32.816Z,9.65
2022-10-25T05:52:16.561Z,9.58
2022-10-25T05:53:16.982Z,9.58
2022-10-25T05:54:16.416Z,9.58
2022-10-25T05:55:16.876Z,9.54
2022-10-25T05:56:16.300Z,9.58
2022-10-25T05:57:16.749Z,9.58
2022-10-25T05:58:17.173Z,9.57
2022-10-25T05:59:16.611Z,9.53
2022-10-25T06:00:17.071Z,9.54
2022-10-25T06:01:16.659Z,9.55
2022-10-25T06:02:16.576Z,9.51
2022-10-25T06:03:17.271Z,9.55
2022-10-25T06:04:16.723Z,9.55
2022-10-25T06:05:17.508Z,9.57
2022-10-25T06:06:17.144Z,9.61
2022-10-25T06:07:16.597Z,9.62
2022-10-25T06:08:17.023Z,9.61
2022-10-25T06:09:16.449Z,9.61
2022-10-25T06:10:16.917Z,9.65
2022-10-25T06:11:16.352Z,9.71
2022-10-25T06:12:17.090Z,9.68
2022-10-25T06:13:16.532Z,9.68
2022-10-25T06:14:16.992Z,9.69
2022-10-25T06:15:16.458Z,9.71
2022-10-25T06:16:16.913Z,9.72
2022-10-25T06:17:16.389Z,9.71
2022-10-25T06:18:16.840Z,9.72
2022-10-25T06:19:16.284Z,9.74
2022-10-25T06:20:16.738Z,9.69
2022-10-25T06:21:17.166Z,9.71
2022-10-25T06:22:16.958Z,9.72
2022-10-25T06:23:16.399Z,9.72
2022-10-25T06:24:16.863Z,9.75
2022-10-25T06:25:16.289Z,9.75
2022-10-25T06:26:16.718Z,9.74
2022-10-25T06:27:17.190Z,9.74
2022-10-25T06:28:16.669Z,9.81
2022-10-25T06:29:17.125Z,9.81
2022-10-25T06:30:16.620Z,9.84
2022-10-25T06:31:17.223Z,9.80
2022-10-25T06:32:16.725Z,9.78
2022-10-25T06:33:17.184Z,9.80
2022-10-25T06:34:16.649Z,9.78
2022-10-25T06:35:17.097Z,9.78
2022-10-25T06:36:16.555Z,9.78
2022-10-25T06:37:16.997Z,9.81
2022-10-25T06:38:16.417Z,9.85
2022-10-25T06:39:16.879Z,9.91
2022-10-25T06:40:16.332Z,9.91
2022-10-25T06:41:16.845Z,9.95
2022-10-25T06:42:16.536Z,10.02
2022-10-25T06:43:17.006Z,10.05
2022-10-25T06:44:16.491Z,10.08
2022-10-25T06:45:17.016Z,10.14
2022-10-25T06:46:16.696Z,10.17
2022-10-25T06:47:18.066Z,10.23
2022-10-25T06:48:16.861Z,10.24
2022-10-25T06:49:16.306Z,10.24
2022-10-25T06:50:16.738Z,10.27
2022-10-25T06:51:17.190Z,10.30
2022-10-25T06:52:17.246Z,10.33
2022-10-25T06:53:16.714Z,10.37
2022-10-25T06:54:17.150Z,10.44
2022-10-25T06:55:16.570Z,10.45
2022-10-25T06:56:17.016Z,10.52
2022-10-25T06:57:16.451Z,10.57
2022-10-25T06:58:16.924Z,10.61
2022-10-25T06:59:16.404Z,10.67
2022-10-25T07:00:16.912Z,10.71
2022-10-25T07:01:16.443Z,10.75
2022-10-25T07:02:17.415Z,10.79
2022-10-25T07:03:17.031Z,10.85
2022-10-25T07:04:16.492Z,10.87
2022-10-25T07:05:16.993Z,10.94
2022-10-25T07:06:16.440Z,10.95
2022-10-25T07:07:16.916Z,10.98
2022-10-25T07:08:16.347Z,11.07
2022-10-25T07:09:16.790Z,11.10
2022-10-25T07:10:17.240Z,11.22
2022-10-25T07:11:16.672Z,11.25
2022-10-25T07:12:16.401Z,11.27
2022-10-25T07:13:16.859Z,11.36
2022-10-25T07:14:16.361Z,11.42
2022-10-25T07:15:16.873Z,11.44
2022-10-25T07:16:16.438Z,11.47
2022-10-25T07:17:16.900Z,11.43
2022-10-25T07:18:16.405Z,11.42
2022-10-25T07:19:16.866Z,11.43
2022-10-25T07:20:16.343Z,11.44
2022-10-25T07:21:16.779Z,11.47
2022-10-25T07:22:16.845Z,11.49
2022-10-25T07:23:16.309Z,11.51
2022-10-25T07:24:16.736Z,11.51
2022-10-25T07:25:17.180Z,11.67
2022-10-25T07:26:16.619Z,11.71
2022-10-25T07:27:17.086Z,11.77
2022-10-25T07:28:16.554Z,11.78
2022-10-25T07:29:17.032Z,11.80
2022-10-25T07:30:16.491Z,11.88
2022-10-25T07:31:16.956Z,11.89
2022-10-25T07:32:17.157Z,11.93
2022-10-25T07:33:16.624Z,11.98
2022-10-25T07:34:17.098Z,12.06
2022-10-25T07:35:16.538Z,11.98
2022-10-25T07:36:17.008Z,11.96
2022-10-25T07:37:16.457Z,11.98
2022-10-25T07:38:16.895Z,11.98
2022-10-25T07:39:16.321Z,11.98
2022-10-25T07:40:16.742Z,11.95
2022-10-25T07:41:17.203Z,11.93
2022-10-25T07:42:16.894Z,11.95
2022-10-25T07:43:16.360Z,12.02
2022-10-25T07:44:18.393Z,12.09
2022-10-25T07:45:18.682Z,12.15
2022-10-25T07:46:16.762Z,12.18
2022-10-25T07:47:17.219Z,12.22
2022-10-25T07:48:16.707Z,12.29
2022-10-25T07:49:17.130Z,12.35
2022-10-25T07:50:16.553Z,12.44
2022-10-25T07:51:17.020Z,12.53
2022-10-25T07:52:16.748Z,12.58
2022-10-25T07:53:17.207Z,12.63
2022-10-25T07:54:16.694Z,12.67
2022-10-25T07:55:17.151Z,12.70
2022-10-25T07:56:18.806Z,12.68
2022-10-25T07:57:16.326Z,12.74
2022-10-25T07:58:16.796Z,12.72
2022-10-25T07:59:17.304Z,12.72
2022-10-25T08:00:16.751Z,12.75
2022-10-25T08:01:17.259Z,12.79
2022-10-25T08:02:17.043Z,12.79
2022-10-25T08:03:16.706Z,12.84
2022-10-25T08:04:17.235Z,12.81
2022-10-25T08:05:16.687Z,12.89
2022-10-25T08:06:17.141Z,12.89
2022-10-25T08:07:16.565Z,12.85
2022-10-25T08:08:17.004Z,12.87
2022-10-25T08:09:33.576Z,12.87
2022-10-25T08:10:16.376Z,12.84
2022-10-25T08:11:16.845Z,12.87
2022-10-25T08:12:20.331Z,12.87
2022-10-25T08:13:17.074Z,12.95
2022-10-25T08:14:16.579Z,12.89
2022-10-25T08:15:17.174Z,12.91
2022-10-25T08:16:16.652Z,12.92
2022-10-25T08:17:17.113Z,13.01
2022-10-25T08:18:16.552Z,13.18
2022-10-25T08:19:17.011Z,13.29
2022-10-25T08:20:16.461Z,13.40
2022-10-25T08:21:16.921Z,13.50
2022-10-25T08:22:16.600Z,13.77
2022-10-25T08:23:17.020Z,13.76
2022-10-25T08:24:16.564Z,13.80
2022-10-25T08:25:17.212Z,13.80
2022-10-25T08:26:16.673Z,13.74
2022-10-25T08:27:17.137Z,13.71
2022-10-25T08:28:16.614Z,13.77
2022-10-25T08:29:17.113Z,13.87
2022-10-25T08:30:16.597Z,13.90
2022-10-25T08:31:17.043Z,13.88
2022-10-25T08:32:16.642Z,13.94
2022-10-25T08:33:17.093Z,14.05
2022-10-25T08:34:16.544Z,14.11
2022-10-25T08:35:17.048Z,14.11
2022-10-25T08:36:16.473Z,14.15
2022-10-25T08:37:16.934Z,14.28
2022-10-25T08:38:16.388Z,14.28
2022-10-25T08:39:16.843Z,14.23
2022-10-25T08:40:16.311Z,14.25
2022-10-25T08:41:16.775Z,14.26
2022-10-25T08:42:16.554Z,14.35
2022-10-25T08:43:16.998Z,14.33
2022-10-25T08:44:16.452Z,14.40
2022-10-25T08:45:16.927Z,14.47
2022-10-25T08:46:16.410Z,14.46
2022-10-25T08:47:16.885Z,14.50
2022-10-25T08:48:16.308Z,14.47
2022-10-25T08:49:16.736Z,14.56
2022-10-25T08:50:17.256Z,14.62
2022-10-25T08:51:16.678Z,14.62
2022-10-25T08:52:17.478Z,14.57
2022-10-25T08:53:17.036Z,14.63
2022-10-25T08:54:16.551Z,14.71
2022-10-25T08:55:17.041Z,14.68
2022-10-25T08:56:17.364Z,14.78
2022-10-25T08:57:17.280Z,14.80
2022-10-25T08:58:16.770Z,14.87
2022-10-25T08:59:17.252Z,14.80
2022-10-25T09:00:16.734Z,14.83
2022-10-25T09:01:17.245Z,14.70
2022-10-25T09:02:16.653Z,14.70
2022-10-25T09:03:17.256Z,14.67
2022-10-25T09:04:16.696Z,14.63
2022-10-25T09:05:17.186Z,14.56
2022-10-25T09:06:16.629Z,14.63
2022-10-25T09:07:17.081Z,14.71
2022-10-25T09:08:16.557Z,14.78
2022-10-25T09:09:17.040Z,14.83
2022-10-25T09:10:16.557Z,14.91
2022-10-25T09:11:17.041Z,14.97
2022-10-25T09:12:16.898Z,15.06
2022-10-25T09:13:16.359Z,15.01
2022-10-25T09:14:16.832Z,14.99
2022-10-25T09:15:16.305Z,15.12
2022-10-25T09:16:16.782Z,15.25
2022-10-25T09:17:17.216Z,15.32
2022-10-25T09:18:16.672Z,15.41
2022-10-25T09:19:17.176Z,15.42
2022-10-25T09:20:16.600Z,15.39
2022-10-25T09:21:21.461Z,15.35
2022-10-25T09:22:16.719Z,15.36
2022-10-25T09:23:17.196Z,15.35
2022-10-25T09:24:16.804Z,15.35
2022-10-25T09:25:17.310Z,15.36
2022-10-25T09:26:16.808Z,15.49
2022-10-25T09:27:17.290Z,15.46
2022-10-25T09:28:16.765Z,15.49
2022-10-25T09:29:17.242Z,15.47
2022-10-25T09:30:16.711Z,15.53
2022-10-25T09:31:17.169Z,15.59
2022-10-25T09:32:17.038Z,15.60
2022-10-25T09:34:16.929Z,15.73
2022-10-25T09:35:16.491Z,15.73
2022-10-25T09:36:16.953Z,15.71
2022-10-25T09:37:16.398Z,15.67
2022-10-25T09:38:16.882Z,15.73
2022-10-25T09:39:16.350Z,16.04
2022-10-25T09:40:16.857Z,16.00
2022-10-25T09:41:16.478Z,16.05
2022-10-25T09:42:17.269Z,16.04
2022-10-25T09:43:16.760Z,16.15
2022-10-25T09:44:17.244Z,16.25
2022-10-25T09:45:16.683Z,16.27
2022-10-25T09:46:17.120Z,16.11
2022-10-25T09:47:16.577Z,15.76
2022-10-25T09:48:17.020Z,15.76
2022-10-25T09:49:16.468Z,15.71
2022-10-25T09:50:16.919Z,15.63
2022-10-25T09:51:16.364Z,15.70
2022-10-25T09:52:17.048Z,15.64
2022-10-25T09:53:17.627Z,15.69
2022-10-25T09:54:16.593Z,15.64
2022-10-25T09:55:17.054Z,15.67
2022-10-25T09:56:16.561Z,15.69
2022-10-25T09:57:17.025Z,15.67
2022-10-25T09:58:16.511Z,15.71
2022-10-25T09:59:16.941Z,15.63
2022-10-25T10:00:16.425Z,15.66
2022-10-25T10:01:17.035Z,15.74
2022-10-25T10:02:16.848Z,15.77
2022-10-25T10:03:16.528Z,15.77
2022-10-25T10:04:16.949Z,15.67
2022-10-25T10:05:16.419Z,15.71
2022-10-25T10:06:16.870Z,15.77
2022-10-25T10:07:16.354Z,15.87
2022-10-25T10:08:16.822Z,15.90
2022-10-25T10:09:17.284Z,15.84
2022-10-25T10:10:16.753Z,15.78
2022-10-25T10:11:17.236Z,15.87
2022-10-25T10:12:16.358Z,15.97
2022-10-25T10:13:16.844Z,16.01
2022-10-25T10:14:17.271Z,16.00
2022-10-25T10:15:16.697Z,16.01
2022-10-25T10:16:17.142Z,16.00
2022-10-25T10:17:16.584Z,15.88
2022-10-25T10:18:17.036Z,15.84
2022-10-25T10:19:16.455Z,15.88
2022-10-25T10:20:16.909Z,15.87
2022-10-25T10:21:16.377Z,15.84
2022-10-25T10:22:17.218Z,15.85
2022-10-25T10:23:16.763Z,15.98
2022-10-25T10:24:17.236Z,16.08
2022-10-25T10:25:16.725Z,16.19
2022-10-25T10:26:17.262Z,16.14
2022-10-25T10:27:16.761Z,16.17
2022-10-25T10:28:17.268Z,16.11
2022-10-25T10:29:17.806Z,16.09
2022-10-25T10:30:16.410Z,16.17
2022-10-25T10:31:16.851Z,15.97
2022-10-25T10:32:16.804Z,16.01
2022-10-25T10:33:17.230Z,15.98
2022-10-25T10:34:16.695Z,15.90
2022-10-25T10:35:17.188Z,15.84
2022-10-25T10:36:16.648Z,15.91
2022-10-25T10:37:17.147Z,15.91
2022-10-25T10:38:16.655Z,15.91
2022-10-25T10:39:17.141Z,15.92
2022-10-25T10:40:16.642Z,16.01
2022-10-25T10:41:17.123Z,16.05
2022-10-25T10:42:16.974Z,16.11
2022-10-25T10:43:16.597Z,16.05
2022-10-25T10:44:17.067Z,16.18
2022-10-25T10:45:16.488Z,16.18
2022-10-25T10:46:16.933Z,16.24
2022-10-25T10:47:16.393Z,16.32
2022-10-25T10:48:16.815Z,16.32
2022-10-25T10:49:17.247Z,16.25
2022-10-25T10:50:16.710Z,16.17
2022-10-25T10:51:31.963Z,16.19
2022-10-25T10:52:16.699Z,16.17
2022-10-25T10:53:17.235Z,16.04
2022-10-25T10:54:16.704Z,16.05
2022-10-25T10:55:17.200Z,16.17
2022-10-25T10:56:16.679Z,16.25
2022-10-25T10:57:17.141Z,16.17
2022-10-25T10:58:16.569Z,16.18
2022-10-25T10:59:17.013Z,16.22
2022-10-25T11:00:16.484Z,16.22
2022-10-25T11:01:17.100Z,16.17
2022-10-25T11:02:16.714Z,16.15
2022-10-25T11:03:16.608Z,16.18
2022-10-25T11:04:17.074Z,16.27
2022-10-25T11:05:16.541Z,16.29
2022-10-25T11:06:17.023Z,16.32
2022-10-25T11:07:16.492Z,16.21
2022-10-25T11:08:16.993Z,16.28
2022-10-25T11:09:16.469Z,16.24
2022-10-25T11:10:16.961Z,16.15
2022-10-25T11:11:16.429Z,16.19
2022-10-25T11:12:17.140Z,16.18
2022-10-25T11:13:16.593Z,16.21
2022-10-25T11:14:17.024Z,16.27
2022-10-25T11:15:16.482Z,16.18
2022-10-25T11:16:16.900Z,16.36
2022-10-25T11:17:16.357Z,16.38
2022-10-25T11:18:16.779Z,16.29
2022-10-25T11:19:17.265Z,16.24
2022-10-25T11:20:16.738Z,16.31
2022-10-25T11:21:17.228Z,16.42
2022-10-25T11:22:16.912Z,16.25
2022-10-25T11:23:16.381Z,16.32
2022-10-25T11:24:16.885Z,16.49
2022-10-25T11:25:16.373Z,16.52
2022-10-25T11:26:16.826Z,16.47
2022-10-25T11:27:17.259Z,16.47
2022-10-25T11:28:16.745Z,16.56
2022-10-25T11:29:17.170Z,16.42
2022-10-25T11:30:16.645Z,16.50
2022-10-25T11:31:17.077Z,16.47
2022-10-25T11:32:16.905Z,16.40
2022-10-25T11:33:16.351Z,16.52
2022-10-25T11:34:16.802Z,16.49
2022-10-25T11:35:17.291Z,16.43
2022-10-25T11:36:16.781Z,16.45
2022-10-25T11:37:17.270Z,16.60
2022-10-25T11:38:16.761Z,16.66
2022-10-25T11:39:17.252Z,16.81
2022-10-25T11:40:16.729Z,16.86
2022-10-25T11:41:17.173Z,17.05
2022-10-25T11:42:17.139Z,17.10
2022-10-25T11:43:16.611Z,17.10
2022-10-25T11:44:17.057Z,17.01
2022-10-25T11:45:16.527Z,16.97
2022-10-25T11:46:16.971Z,16.91
2022-10-25T11:47:16.414Z,17.04
2022-10-25T11:48:16.855Z,17.07
2022-10-25T11:49:16.326Z,17.05
2022-10-25T11:50:16.796Z,17.04
2022-10-25T11:51:17.264Z,17.00
2022-10-25T11:52:17.108Z,17.00
2022-10-25T11:53:16.573Z,16.95
2022-10-25T11:54:17.068Z,16.87
2022-10-25T11:55:16.503Z,16.74
2022-10-25T11:56:16.944Z,16.80
2022-10-25T11:57:16.412Z,16.80
2022-10-25T11:58:16.891Z,16.76
2022-10-25T11:59:16.355Z,16.87
2022-10-25T12:00:16.862Z,16.86
2022-10-25T12:01:16.521Z,16.80
2022-10-25T12:02:16.700Z,16.81
2022-10-25T12:03:17.207Z,16.74
2022-10-25T12:04:16.677Z,16.60
2022-10-25T12:05:17.164Z,16.53
2022-10-25T12:06:16.626Z,16.46
2022-10-25T12:07:17.118Z,16.43
2022-10-25T12:08:16.573Z,16.46
2022-10-25T12:09:17.046Z,16.62
2022-10-25T12:10:16.565Z,16.60
2022-10-25T12:11:18.067Z,16.71
2022-10-25T12:12:16.753Z,16.70
2022-10-25T12:13:17.197Z,16.70
2022-10-25T12:14:16.635Z,16.66
2022-10-25T12:15:17.122Z,16.60
2022-10-25T12:16:16.577Z,16.53
2022-10-25T12:17:17.088Z,16.47
2022-10-25T12:18:16.565Z,16.45
2022-10-25T12:19:17.052Z,16.38
2022-10-25T12:20:16.548Z,16.40
2022-10-25T12:21:17.158Z,16.49
2022-10-25T12:22:16.961Z,16.45
2022-10-25T12:23:16.436Z,16.46
2022-10-25T12:24:16.932Z,16.56
2022-10-25T12:25:16.480Z,16.67
2022-10-25T12:26:17.110Z,16.66
2022-10-25T12:27:16.793Z,16.62
2022-10-25T12:28:16.433Z,16.67
2022-10-25T12:29:16.856Z,16.63
2022-10-25T12:30:16.386Z,16.73
2022-10-25T12:31:16.921Z,16.80
2022-10-25T12:32:17.214Z,16.94
2022-10-25T12:33:16.651Z,17.05
2022-10-25T12:34:17.110Z,17.10
2022-10-25T12:35:16.582Z,17.08
2022-10-25T12:36:17.065Z,17.10
2022-10-25T12:37:16.545Z,17.11
2022-10-25T12:38:17.002Z,17.26
2022-10-25T12:39:16.493Z,17.17
2022-10-25T12:40:17.011Z,17.28
2022-10-25T12:41:16.578Z,17.22
2022-10-25T12:42:16.736Z,17.21
2022-10-25T12:43:17.172Z,17.14
2022-10-25T12:44:16.604Z,17.21
2022-10-25T12:45:17.038Z,17.01
2022-10-25T12:46:16.467Z,17.01
2022-10-25T12:47:16.892Z,16.91
2022-10-25T12:48:16.320Z,16.78
2022-10-25T12:49:16.800Z,16.71
2022-10-25T12:51:18.163Z,16.98
2022-10-25T12:52:17.094Z,17.14
2022-10-25T12:53:16.597Z,17.10
2022-10-25T12:54:17.116Z,16.84
2022-10-25T12:55:16.569Z,16.87
2022-10-25T12:56:17.025Z,16.86
2022-10-25T12:57:16.449Z,16.83
2022-10-25T12:58:16.926Z,17.04
2022-10-25T12:59:16.369Z,17.11
2022-10-25T13:00:16.870Z,17.08
2022-10-25T13:01:16.435Z,17.04
2022-10-25T13:02:16.388Z,17.03
2022-10-25T13:03:18.480Z,17.07
2022-10-25T13:04:17.152Z,16.94
2022-10-25T13:05:16.599Z,16.93
2022-10-25T13:06:17.060Z,16.98
2022-10-25T13:07:16.543Z,17.00
2022-10-25T13:08:17.012Z,16.81